sensor_id;sensor_type;location;lat;lon;timestamp;pressure;altitude;pressure_sealevel;temperature;humidity
13456;BME280;6800;50.940;6.940;2023-02-16T00:00:26;101773.00;;;15.66;38.83
13456;BME280;6800;50.940;6.940;2023-02-16T00:04:30;101778.84;;;15.85;38.45
13456;BME280;6800;50.940;6.940;2023-02-16T00:08:31;101775.19;;;15.87;38.45
13456;BME280;6800;50.940;6.940;2023-02-16T00:12:32;101783.63;;;15.64;38.65
13456;BME280;6800;50.940;6.940;2023-02-16T00:16:54;101777.84;;;15.14;39.99
13456;BME280;6800;50.940;6.940;2023-02-16T00:20:56;101774.13;;;15.76;38.74
13456;BME280;6800;50.940;6.940;2023-02-16T00:24:57;101776.59;;;15.79;38.32
13456;BME280;6800;50.940;6.940;2023-02-16T00:28:59;101779.13;;;15.36;39.14
13456;BME280;6800;50.940;6.940;2023-02-16T00:33:00;101776.34;;;15.39;39.20
13456;BME280;6800;50.940;6.940;2023-02-16T00:37:07;101772.47;;;15.60;38.73
13456;BME280;6800;50.940;6.940;2023-02-16T00:41:17;101778.34;;;14.75;40.57
13456;BME280;6800;50.940;6.940;2023-02-16T00:45:38;101775.56;;;14.78;40.64
13456;BME280;6800;50.940;6.940;2023-02-16T00:49:40;101774.34;;;14.99;39.71
13456;BME280;6800;50.940;6.940;2023-02-16T00:53:42;101777.03;;;14.98;40.18
13456;BME280;6800;50.940;6.940;2023-02-16T00:57:50;101761.09;;;15.01;39.87
13456;BME280;6800;50.940;6.940;2023-02-16T01:01:52;101761.63;;;15.21;39.42
13456;BME280;6800;50.940;6.940;2023-02-16T01:05:54;101760.97;;;15.18;39.61
13456;BME280;6800;50.940;6.940;2023-02-16T01:10:17;101763.00;;;15.13;39.73
13456;BME280;6800;50.940;6.940;2023-02-16T01:14:37;101758.38;;;15.02;39.55
13456;BME280;6800;50.940;6.940;2023-02-16T01:18:38;101757.41;;;14.58;40.51
13456;BME280;6800;50.940;6.940;2023-02-16T01:22:40;101741.25;;;14.95;39.88
13456;BME280;6800;50.940;6.940;2023-02-16T01:26:45;101742.72;;;14.85;39.78
13456;BME280;6800;50.940;6.940;2023-02-16T01:30:49;101751.13;;;14.76;40.49
13456;BME280;6800;50.940;6.940;2023-02-16T01:34:50;101748.47;;;14.76;39.71
13456;BME280;6800;50.940;6.940;2023-02-16T01:38:52;101740.44;;;14.79;39.92
13456;BME280;6800;50.940;6.940;2023-02-16T01:42:57;101743.47;;;14.87;39.63
13456;BME280;6800;50.940;6.940;2023-02-16T01:47:13;101736.91;;;14.64;40.60
13456;BME280;6800;50.940;6.940;2023-02-16T01:51:24;101738.63;;;14.50;40.83
13456;BME280;6800;50.940;6.940;2023-02-16T01:55:30;101737.84;;;14.48;40.50
13456;BME280;6800;50.940;6.940;2023-02-16T02:00:03;101742.09;;;14.35;41.05
13456;BME280;6800;50.940;6.940;2023-02-16T02:04:20;101742.56;;;14.72;40.33
13456;BME280;6800;50.940;6.940;2023-02-16T02:13:00;101733.50;;;14.78;40.13
13456;BME280;6800;50.940;6.940;2023-02-16T02:17:07;101731.13;;;14.11;41.35
13456;BME280;6800;50.940;6.940;2023-02-16T02:35:03;101730.13;;;14.60;40.33
13456;BME280;6800;50.940;6.940;2023-02-16T02:39:38;101720.41;;;14.31;40.69
13456;BME280;6800;50.940;6.940;2023-02-16T02:43:47;101710.06;;;14.44;40.37
13456;BME280;6800;50.940;6.940;2023-02-16T02:47:50;101707.84;;;14.52;40.45
13456;BME280;6800;50.940;6.940;2023-02-16T02:51:52;101701.09;;;14.32;40.94
13456;BME280;6800;50.940;6.940;2023-02-16T02:55:56;101718.06;;;14.25;40.36
13456;BME280;6800;50.940;6.940;2023-02-16T03:00:22;101709.81;;;14.48;40.35
13456;BME280;6800;50.940;6.940;2023-02-16T03:04:45;101705.22;;;14.36;40.76
13456;BME280;6800;50.940;6.940;2023-02-16T03:08:50;101696.59;;;14.50;40.16
13456;BME280;6800;50.940;6.940;2023-02-16T03:12:55;101699.72;;;14.41;40.51
13456;BME280;6800;50.940;6.940;2023-02-16T03:17:04;101700.97;;;14.18;40.52
13456;BME280;6800;50.940;6.940;2023-02-16T03:21:26;101693.97;;;14.19;40.73
13456;BME280;6800;50.940;6.940;2023-02-16T03:25:47;101697.66;;;14.15;41.08
13456;BME280;6800;50.940;6.940;2023-02-16T03:30:09;101694.06;;;14.48;40.02
13456;BME280;6800;50.940;6.940;2023-02-16T03:34:11;101692.72;;;13.77;41.69
13456;BME280;6800;50.940;6.940;2023-02-16T03:38:13;101678.59;;;14.11;41.26
13456;BME280;6800;50.940;6.940;2023-02-16T03:42:14;101677.00;;;14.08;40.87
13456;BME280;6800;50.940;6.940;2023-02-16T03:46:16;101676.41;;;14.03;41.25
13456;BME280;6800;50.940;6.940;2023-02-16T03:50:17;101676.47;;;14.02;41.27
13456;BME280;6800;50.940;6.940;2023-02-16T03:54:19;101670.91;;;13.92;41.40
13456;BME280;6800;50.940;6.940;2023-02-16T03:58:23;101676.91;;;13.94;41.17
13456;BME280;6800;50.940;6.940;2023-02-16T04:02:26;101679.97;;;14.34;40.84
13456;BME280;6800;50.940;6.940;2023-02-16T04:06:28;101681.03;;;14.31;40.90
13456;BME280;6800;50.940;6.940;2023-02-16T04:10:32;101680.22;;;14.14;41.08
13456;BME280;6800;50.940;6.940;2023-02-16T04:14:33;101677.25;;;14.20;40.87
13456;BME280;6800;50.940;6.940;2023-02-16T04:18:35;101684.53;;;14.15;41.05
13456;BME280;6800;50.940;6.940;2023-02-16T04:22:36;101674.31;;;14.10;40.80
13456;BME280;6800;50.940;6.940;2023-02-16T04:26:37;101681.75;;;13.86;41.57
13456;BME280;6800;50.940;6.940;2023-02-16T04:30:39;101682.31;;;13.76;41.48
13456;BME280;6800;50.940;6.940;2023-02-16T04:34:40;101679.94;;;13.87;41.54
13456;BME280;6800;50.940;6.940;2023-02-16T04:38:42;101688.00;;;13.51;42.13
13456;BME280;6800;50.940;6.940;2023-02-16T04:42:44;101682.13;;;13.63;41.42
13456;BME280;6800;50.940;6.940;2023-02-16T04:46:45;101683.31;;;13.41;42.31
13456;BME280;6800;50.940;6.940;2023-02-16T04:50:46;101689.38;;;13.58;41.41
13456;BME280;6800;50.940;6.940;2023-02-16T04:54:48;101687.09;;;13.52;41.62
13456;BME280;6800;50.940;6.940;2023-02-16T04:58:49;101683.00;;;13.47;41.78
13456;BME280;6800;50.940;6.940;2023-02-16T05:02:50;101687.19;;;13.66;41.07
13456;BME280;6800;50.940;6.940;2023-02-16T05:06:52;101679.31;;;13.66;41.46
13456;BME280;6800;50.940;6.940;2023-02-16T05:10:53;101676.13;;;13.77;41.16
13456;BME280;6800;50.940;6.940;2023-02-16T05:15:13;101675.84;;;13.50;41.75
13456;BME280;6800;50.940;6.940;2023-02-16T05:19:15;101680.59;;;13.59;41.19
13456;BME280;6800;50.940;6.940;2023-02-16T05:23:16;101684.38;;;13.21;42.08
13456;BME280;6800;50.940;6.940;2023-02-16T05:27:20;101686.38;;;13.16;41.98
13456;BME280;6800;50.940;6.940;2023-02-16T05:31:23;101672.44;;;13.48;41.24
13456;BME280;6800;50.940;6.940;2023-02-16T05:35:24;101676.50;;;13.54;41.44
13456;BME280;6800;50.940;6.940;2023-02-16T05:39:26;101686.66;;;13.44;41.33
13456;BME280;6800;50.940;6.940;2023-02-16T05:43:27;101689.28;;;13.44;40.74
13456;BME280;6800;50.940;6.940;2023-02-16T05:47:28;101683.47;;;13.70;40.27
13456;BME280;6800;50.940;6.940;2023-02-16T05:51:30;101687.06;;;13.19;41.42
13456;BME280;6800;50.940;6.940;2023-02-16T05:55:32;101694.84;;;13.04;41.82
13456;BME280;6800;50.940;6.940;2023-02-16T05:59:33;101685.22;;;13.21;41.86
13456;BME280;6800;50.940;6.940;2023-02-16T06:03:34;101688.56;;;13.41;40.63
13456;BME280;6800;50.940;6.940;2023-02-16T06:07:36;101693.50;;;13.47;40.63
13456;BME280;6800;50.940;6.940;2023-02-16T06:11:38;101687.78;;;13.23;41.24
13456;BME280;6800;50.940;6.940;2023-02-16T06:15:39;101680.03;;;13.37;41.17
13456;BME280;6800;50.940;6.940;2023-02-16T06:19:40;101679.91;;;13.56;40.67
13456;BME280;6800;50.940;6.940;2023-02-16T06:23:42;101688.38;;;13.28;41.26
13456;BME280;6800;50.940;6.940;2023-02-16T06:27:43;101682.38;;;13.09;42.20
13456;BME280;6800;50.940;6.940;2023-02-16T06:31:44;101686.50;;;13.30;41.17
13456;BME280;6800;50.940;6.940;2023-02-16T06:35:46;101681.84;;;13.52;40.25
13456;BME280;6800;50.940;6.940;2023-02-16T06:39:47;101688.97;;;13.33;41.09
13456;BME280;6800;50.940;6.940;2023-02-16T06:43:49;101689.41;;;13.08;41.49
13456;BME280;6800;50.940;6.940;2023-02-16T06:47:50;101697.44;;;12.70;42.44
13456;BME280;6800;50.940;6.940;2023-02-16T06:51:51;101698.28;;;13.06;42.00
13456;BME280;6800;50.940;6.940;2023-02-16T06:55:53;101697.16;;;13.27;41.37
13456;BME280;6800;50.940;6.940;2023-02-16T06:59:54;101691.28;;;13.72;40.17
13456;BME280;6800;50.940;6.940;2023-02-16T07:03:56;101702.41;;;13.27;40.68
13456;BME280;6800;50.940;6.940;2023-02-16T07:07:58;101695.03;;;13.99;40.59
13456;BME280;6800;50.940;6.940;2023-02-16T07:11:59;101701.09;;;13.68;41.74
13456;BME280;6800;50.940;6.940;2023-02-16T07:16:02;101714.53;;;14.26;39.55
13456;BME280;6800;50.940;6.940;2023-02-16T07:20:05;101706.81;;;14.23;39.39
13456;BME280;6800;50.940;6.940;2023-02-16T07:24:06;101701.94;;;14.48;39.03
13456;BME280;6800;50.940;6.940;2023-02-16T07:28:08;101707.34;;;13.66;40.52
13456;BME280;6800;50.940;6.940;2023-02-16T07:32:09;101698.09;;;14.38;39.31
13456;BME280;6800;50.940;6.940;2023-02-16T07:36:11;101705.38;;;14.18;39.57
13456;BME280;6800;50.940;6.940;2023-02-16T07:40:13;101701.31;;;14.28;39.71
13456;BME280;6800;50.940;6.940;2023-02-16T07:44:14;101708.09;;;14.63;38.49
13456;BME280;6800;50.940;6.940;2023-02-16T07:48:16;101696.72;;;13.84;40.05
13456;BME280;6800;50.940;6.940;2023-02-16T07:52:18;101703.09;;;14.27;40.22
13456;BME280;6800;50.940;6.940;2023-02-16T07:56:22;101702.19;;;14.44;39.03
13456;BME280;6800;50.940;6.940;2023-02-16T08:00:25;101708.25;;;14.44;39.35
13456;BME280;6800;50.940;6.940;2023-02-16T08:04:27;101704.97;;;14.09;40.14
13456;BME280;6800;50.940;6.940;2023-02-16T08:08:28;101702.69;;;14.35;39.40
13456;BME280;6800;50.940;6.940;2023-02-16T08:12:30;101702.44;;;14.39;39.10
13456;BME280;6800;50.940;6.940;2023-02-16T08:16:32;101700.09;;;14.80;38.59
13456;BME280;6800;50.940;6.940;2023-02-16T08:20:33;101700.94;;;15.24;38.15
13456;BME280;6800;50.940;6.940;2023-02-16T08:24:55;101696.31;;;14.23;39.35
13456;BME280;6800;50.940;6.940;2023-02-16T08:28:57;101703.66;;;14.17;40.21
13456;BME280;6800;50.940;6.940;2023-02-16T08:32:59;101698.34;;;14.34;39.51
13456;BME280;6800;50.940;6.940;2023-02-16T08:37:01;101693.97;;;14.34;40.12
13456;BME280;6800;50.940;6.940;2023-02-16T08:41:02;101691.81;;;14.25;40.28
13456;BME280;6800;50.940;6.940;2023-02-16T08:45:04;101687.13;;;15.21;38.66
13456;BME280;6800;50.940;6.940;2023-02-16T08:49:08;101691.09;;;15.42;38.04
13456;BME280;6800;50.940;6.940;2023-02-16T08:53:09;101689.16;;;15.74;37.33
13456;BME280;6800;50.940;6.940;2023-02-16T08:57:11;101687.63;;;15.41;37.88
13456;BME280;6800;50.940;6.940;2023-02-16T09:01:13;101689.53;;;15.82;37.40
13456;BME280;6800;50.940;6.940;2023-02-16T09:05:15;101690.25;;;15.98;37.33
13456;BME280;6800;50.940;6.940;2023-02-16T09:09:16;101687.94;;;16.61;36.52
13456;BME280;6800;50.940;6.940;2023-02-16T09:13:18;101689.69;;;17.64;34.18
13456;BME280;6800;50.940;6.940;2023-02-16T09:17:32;101704.47;;;17.66;34.32
13456;BME280;6800;50.940;6.940;2023-02-16T09:21:33;101704.09;;;17.21;35.11
13456;BME280;6800;50.940;6.940;2023-02-16T09:25:36;101704.69;;;18.12;33.92
13456;BME280;6800;50.940;6.940;2023-02-16T09:29:38;101702.13;;;17.37;35.10
13456;BME280;6800;50.940;6.940;2023-02-16T09:33:42;101714.59;;;16.83;35.81
13456;BME280;6800;50.940;6.940;2023-02-16T09:37:43;101695.56;;;17.80;34.92
13456;BME280;6800;50.940;6.940;2023-02-16T09:42:19;101689.50;;;19.99;31.13
13456;BME280;6800;50.940;6.940;2023-02-16T09:46:24;101700.66;;;18.19;33.31
13456;BME280;6800;50.940;6.940;2023-02-16T09:50:28;101689.66;;;18.73;33.48
13456;BME280;6800;50.940;6.940;2023-02-16T09:59:04;101702.13;;;18.94;33.16
13456;BME280;6800;50.940;6.940;2023-02-16T10:07:48;101716.41;;;19.26;32.29
13456;BME280;6800;50.940;6.940;2023-02-16T10:12:01;101712.28;;;19.57;32.42
13456;BME280;6800;50.940;6.940;2023-02-16T10:16:13;101705.75;;;19.39;32.86
13456;BME280;6800;50.940;6.940;2023-02-16T10:20:22;101707.00;;;18.77;33.68
13456;BME280;6800;50.940;6.940;2023-02-16T10:24:28;101719.59;;;18.49;33.87
13456;BME280;6800;50.940;6.940;2023-02-16T10:33:11;101712.91;;;19.26;33.53
13456;BME280;6800;50.940;6.940;2023-02-16T10:37:28;101712.44;;;19.21;34.06
13456;BME280;6800;50.940;6.940;2023-02-16T10:41:38;101712.28;;;19.57;33.33
13456;BME280;6800;50.940;6.940;2023-02-16T10:49:45;101708.41;;;19.83;33.14
13456;BME280;6800;50.940;6.940;2023-02-16T10:53:52;101715.88;;;19.89;32.96
13456;BME280;6800;50.940;6.940;2023-02-16T10:57:57;101710.34;;;19.92;32.90
13456;BME280;6800;50.940;6.940;2023-02-16T11:02:00;101710.00;;;19.53;33.72
13456;BME280;6800;50.940;6.940;2023-02-16T11:06:16;101698.31;;;19.09;34.50
13456;BME280;6800;50.940;6.940;2023-02-16T11:10:20;101699.38;;;19.41;34.16
13456;BME280;6800;50.940;6.940;2023-02-16T11:14:25;101684.69;;;19.93;33.71
13456;BME280;6800;50.940;6.940;2023-02-16T11:18:32;101682.59;;;19.19;34.90
13456;BME280;6800;50.940;6.940;2023-02-16T11:22:37;101684.94;;;19.45;34.21
13456;BME280;6800;50.940;6.940;2023-02-16T11:26:38;101672.53;;;19.35;34.46
13456;BME280;6800;50.940;6.940;2023-02-16T11:30:40;101667.97;;;19.37;34.64
13456;BME280;6800;50.940;6.940;2023-02-16T11:34:50;101664.94;;;19.86;34.11
13456;BME280;6800;50.940;6.940;2023-02-16T11:39:13;101663.84;;;19.88;33.76
13456;BME280;6800;50.940;6.940;2023-02-16T11:43:16;101661.53;;;20.80;32.81
13456;BME280;6800;50.940;6.940;2023-02-16T11:47:34;101637.34;;;20.94;32.60
13456;BME280;6800;50.940;6.940;2023-02-16T11:51:37;101632.25;;;21.03;32.90
13456;BME280;6800;50.940;6.940;2023-02-16T11:55:45;101634.16;;;20.80;33.18
13456;BME280;6800;50.940;6.940;2023-02-16T11:59:46;101621.19;;;21.28;33.09
13456;BME280;6800;50.940;6.940;2023-02-16T12:04:06;101631.00;;;21.07;33.37
13456;BME280;6800;50.940;6.940;2023-02-16T12:08:45;101621.66;;;21.33;33.02
13456;BME280;6800;50.940;6.940;2023-02-16T12:13:03;101616.53;;;20.79;33.57
13456;BME280;6800;50.940;6.940;2023-02-16T12:17:31;101599.78;;;20.78;34.19
13456;BME280;6800;50.940;6.940;2023-02-16T12:26:33;101609.03;;;20.84;34.47
13456;BME280;6800;50.940;6.940;2023-02-16T12:30:50;101606.25;;;20.85;34.05
13456;BME280;6800;50.940;6.940;2023-02-16T12:43:52;101602.44;;;20.99;34.50
13456;BME280;6800;50.940;6.940;2023-02-16T12:52:05;101592.75;;;21.19;34.15
13456;BME280;6800;50.940;6.940;2023-02-16T12:56:16;101592.50;;;21.22;34.02
13456;BME280;6800;50.940;6.940;2023-02-16T13:00:26;101581.44;;;21.17;34.44
13456;BME280;6800;50.940;6.940;2023-02-16T13:04:48;101569.63;;;21.30;34.67
13456;BME280;6800;50.940;6.940;2023-02-16T13:08:57;101555.09;;;21.34;34.43
13456;BME280;6800;50.940;6.940;2023-02-16T13:13:09;101558.03;;;21.31;34.65
13456;BME280;6800;50.940;6.940;2023-02-16T13:17:16;101551.72;;;21.32;35.21
13456;BME280;6800;50.940;6.940;2023-02-16T13:34:02;101546.53;;;21.70;35.72
13456;BME280;6800;50.940;6.940;2023-02-16T13:43:10;101547.69;;;21.87;35.56
13456;BME280;6800;50.940;6.940;2023-02-16T13:47:17;101528.88;;;21.69;36.03
13456;BME280;6800;50.940;6.940;2023-02-16T13:51:23;101530.47;;;21.91;35.77
13456;BME280;6800;50.940;6.940;2023-02-16T13:55:30;101520.69;;;22.30;35.39
13456;BME280;6800;50.940;6.940;2023-02-16T14:03:37;101497.81;;;22.56;34.84
13456;BME280;6800;50.940;6.940;2023-02-16T14:07:39;101486.63;;;22.62;34.96
13456;BME280;6800;50.940;6.940;2023-02-16T14:15:55;101480.47;;;22.52;35.18
13456;BME280;6800;50.940;6.940;2023-02-16T14:20:02;101467.56;;;22.47;35.10
13456;BME280;6800;50.940;6.940;2023-02-16T14:24:11;101471.63;;;22.61;34.47
13456;BME280;6800;50.940;6.940;2023-02-16T14:32:25;101459.03;;;22.44;35.10
13456;BME280;6800;50.940;6.940;2023-02-16T14:36:28;101459.41;;;22.68;33.86
13456;BME280;6800;50.940;6.940;2023-02-16T14:44:52;101463.03;;;22.67;33.73
13456;BME280;6800;50.940;6.940;2023-02-16T14:49:15;101457.63;;;22.86;34.43
13456;BME280;6800;50.940;6.940;2023-02-16T15:02:29;101465.69;;;22.02;35.78
13456;BME280;6800;50.940;6.940;2023-02-16T15:06:33;101451.00;;;22.07;35.83
13456;BME280;6800;50.940;6.940;2023-02-16T15:10:41;101456.72;;;22.22;35.24
13456;BME280;6800;50.940;6.940;2023-02-16T15:14:59;101460.06;;;22.24;35.33
13456;BME280;6800;50.940;6.940;2023-02-16T15:19:06;101448.63;;;21.95;35.90
13456;BME280;6800;50.940;6.940;2023-02-16T15:23:21;101446.22;;;22.20;35.44
13456;BME280;6800;50.940;6.940;2023-02-16T15:27:23;101447.63;;;22.05;35.79
13456;BME280;6800;50.940;6.940;2023-02-16T15:31:34;101430.97;;;22.13;35.71
13456;BME280;6800;50.940;6.940;2023-02-16T15:35:41;101427.19;;;21.67;36.34
13456;BME280;6800;50.940;6.940;2023-02-16T15:39:43;101419.47;;;22.12;36.02
13456;BME280;6800;50.940;6.940;2023-02-16T15:44:06;101402.56;;;22.04;36.11
13456;BME280;6800;50.940;6.940;2023-02-16T15:48:35;101414.03;;;22.14;35.86
13456;BME280;6800;50.940;6.940;2023-02-16T15:52:37;101415.72;;;21.96;36.02
13456;BME280;6800;50.940;6.940;2023-02-16T15:56:44;101421.19;;;21.94;36.22
13456;BME280;6800;50.940;6.940;2023-02-16T16:00:47;101433.19;;;22.08;36.12
13456;BME280;6800;50.940;6.940;2023-02-16T16:04:54;101436.84;;;22.07;36.12
13456;BME280;6800;50.940;6.940;2023-02-16T16:08:56;101436.31;;;21.94;36.15
13456;BME280;6800;50.940;6.940;2023-02-16T16:13:01;101439.09;;;21.83;36.50
13456;BME280;6800;50.940;6.940;2023-02-16T16:17:03;101436.44;;;22.02;36.17
13456;BME280;6800;50.940;6.940;2023-02-16T16:21:19;101425.97;;;21.91;36.20
13456;BME280;6800;50.940;6.940;2023-02-16T16:29:36;101430.97;;;21.55;36.86
13456;BME280;6800;50.940;6.940;2023-02-16T16:33:58;101432.94;;;21.72;36.28
13456;BME280;6800;50.940;6.940;2023-02-16T16:37:59;101439.22;;;21.52;36.57
13456;BME280;6800;50.940;6.940;2023-02-16T16:42:18;101433.19;;;21.50;36.63
13456;BME280;6800;50.940;6.940;2023-02-16T16:46:28;101441.16;;;21.69;36.58
13456;BME280;6800;50.940;6.940;2023-02-16T16:50:35;101438.50;;;21.50;36.51
13456;BME280;6800;50.940;6.940;2023-02-16T16:54:42;101429.16;;;21.56;35.74
13456;BME280;6800;50.940;6.940;2023-02-16T17:03:19;101432.97;;;21.82;35.64
13456;BME280;6800;50.940;6.940;2023-02-16T17:07:20;101435.19;;;21.87;34.67
13456;BME280;6800;50.940;6.940;2023-02-16T17:11:40;101427.31;;;21.37;35.12
13456;BME280;6800;50.940;6.940;2023-02-16T17:19:55;101435.84;;;21.69;34.47
13456;BME280;6800;50.940;6.940;2023-02-16T17:23:59;101429.00;;;21.76;34.47
13456;BME280;6800;50.940;6.940;2023-02-16T17:28:01;101430.09;;;21.26;35.12
13456;BME280;6800;50.940;6.940;2023-02-16T17:32:04;101429.56;;;21.70;34.06
13456;BME280;6800;50.940;6.940;2023-02-16T17:36:07;101428.72;;;21.70;34.49
13456;BME280;6800;50.940;6.940;2023-02-16T17:40:13;101430.41;;;21.81;34.42
13456;BME280;6800;50.940;6.940;2023-02-16T17:44:16;101423.84;;;21.94;33.90
13456;BME280;6800;50.940;6.940;2023-02-16T17:48:20;101414.16;;;21.26;34.99
13456;BME280;6800;50.940;6.940;2023-02-16T17:52:21;101420.88;;;21.30;35.07
13456;BME280;6800;50.940;6.940;2023-02-16T17:56:23;101423.00;;;21.46;34.65
13456;BME280;6800;50.940;6.940;2023-02-16T18:00:25;101426.34;;;21.29;34.81
13456;BME280;6800;50.940;6.940;2023-02-16T18:04:26;101429.41;;;21.24;34.93
13456;BME280;6800;50.940;6.940;2023-02-16T18:08:28;101444.47;;;21.14;35.26
13456;BME280;6800;50.940;6.940;2023-02-16T18:12:29;101442.09;;;20.81;35.56
13456;BME280;6800;50.940;6.940;2023-02-16T18:16:31;101441.25;;;20.50;36.13
13456;BME280;6800;50.940;6.940;2023-02-16T18:20:32;101444.06;;;21.28;35.06
13456;BME280;6800;50.940;6.940;2023-02-16T18:24:34;101439.88;;;21.26;35.32
13456;BME280;6800;50.940;6.940;2023-02-16T18:28:35;101441.69;;;21.25;35.03
13456;BME280;6800;50.940;6.940;2023-02-16T18:32:37;101438.53;;;21.60;34.53
13456;BME280;6800;50.940;6.940;2023-02-16T18:36:39;101451.41;;;21.64;35.01
13456;BME280;6800;50.940;6.940;2023-02-16T18:40:42;101453.47;;;21.51;35.75
13456;BME280;6800;50.940;6.940;2023-02-16T18:44:43;101447.44;;;21.30;36.01
13456;BME280;6800;50.940;6.940;2023-02-16T18:48:48;101457.53;;;21.46;36.13
13456;BME280;6800;50.940;6.940;2023-02-16T18:52:49;101464.41;;;21.58;35.71
13456;BME280;6800;50.940;6.940;2023-02-16T18:56:51;101465.47;;;21.36;35.87
13456;BME280;6800;50.940;6.940;2023-02-16T19:00:52;101464.50;;;21.37;35.86
13456;BME280;6800;50.940;6.940;2023-02-16T19:04:53;101466.50;;;21.54;35.71
13456;BME280;6800;50.940;6.940;2023-02-16T19:08:55;101465.28;;;21.09;35.98
13456;BME280;6800;50.940;6.940;2023-02-16T19:12:58;101465.72;;;21.24;36.08
13456;BME280;6800;50.940;6.940;2023-02-16T19:17:02;101459.56;;;21.23;36.04
13456;BME280;6800;50.940;6.940;2023-02-16T19:21:08;101455.16;;;21.33;35.80
13456;BME280;6800;50.940;6.940;2023-02-16T19:25:10;101455.09;;;21.24;35.81
13456;BME280;6800;50.940;6.940;2023-02-16T19:29:11;101463.66;;;21.46;35.55
13456;BME280;6800;50.940;6.940;2023-02-16T19:33:13;101457.34;;;21.38;35.43
13456;BME280;6800;50.940;6.940;2023-02-16T19:37:14;101466.09;;;21.68;35.02
13456;BME280;6800;50.940;6.940;2023-02-16T19:41:36;101462.28;;;21.61;35.04
13456;BME280;6800;50.940;6.940;2023-02-16T19:45:38;101469.16;;;21.64;35.47
13456;BME280;6800;50.940;6.940;2023-02-16T19:49:41;101465.91;;;21.41;36.10
13456;BME280;6800;50.940;6.940;2023-02-16T19:53:43;101454.63;;;21.58;35.79
13456;BME280;6800;50.940;6.940;2023-02-16T19:57:44;101452.50;;;21.62;36.15
13456;BME280;6800;50.940;6.940;2023-02-16T20:01:46;101460.88;;;21.57;36.03
13456;BME280;6800;50.940;6.940;2023-02-16T20:05:47;101461.00;;;21.46;36.31
13456;BME280;6800;50.940;6.940;2023-02-16T20:09:49;101465.66;;;21.54;36.52
13456;BME280;6800;50.940;6.940;2023-02-16T20:13:51;101464.94;;;21.61;36.09
13456;BME280;6800;50.940;6.940;2023-02-16T20:17:53;101465.78;;;21.43;36.42
13456;BME280;6800;50.940;6.940;2023-02-16T20:21:56;101453.88;;;21.47;36.02
13456;BME280;6800;50.940;6.940;2023-02-16T20:25:57;101452.38;;;21.54;36.62
13456;BME280;6800;50.940;6.940;2023-02-16T20:30:00;101443.81;;;21.41;36.32
13456;BME280;6800;50.940;6.940;2023-02-16T20:34:03;101434.94;;;20.72;37.54
13456;BME280;6800;50.940;6.940;2023-02-16T20:38:05;101429.91;;;20.78;37.76
13456;BME280;6800;50.940;6.940;2023-02-16T20:42:08;101418.88;;;21.13;37.39
13456;BME280;6800;50.940;6.940;2023-02-16T20:46:11;101428.84;;;20.90;37.59
13456;BME280;6800;50.940;6.940;2023-02-16T20:50:13;101421.84;;;20.80;37.96
13456;BME280;6800;50.940;6.940;2023-02-16T20:54:14;101419.03;;;20.81;38.16
13456;BME280;6800;50.940;6.940;2023-02-16T20:58:16;101414.81;;;21.19;38.11
13456;BME280;6800;50.940;6.940;2023-02-16T21:02:18;101415.53;;;21.11;38.27
13456;BME280;6800;50.940;6.940;2023-02-16T21:06:20;101406.63;;;20.91;38.73
13456;BME280;6800;50.940;6.940;2023-02-16T21:10:21;101411.28;;;20.99;38.93
13456;BME280;6800;50.940;6.940;2023-02-16T21:14:23;101417.22;;;21.12;39.11
13456;BME280;6800;50.940;6.940;2023-02-16T21:18:24;101412.41;;;20.36;41.30
13456;BME280;6800;50.940;6.940;2023-02-16T21:22:26;101409.28;;;20.82;40.50
13456;BME280;6800;50.940;6.940;2023-02-16T21:26:27;101401.16;;;20.83;41.01
13456;BME280;6800;50.940;6.940;2023-02-16T21:30:28;101409.81;;;20.76;41.00
13456;BME280;6800;50.940;6.940;2023-02-16T21:34:30;101402.69;;;21.16;40.76
13456;BME280;6800;50.940;6.940;2023-02-16T21:38:31;101409.41;;;21.20;40.46
13456;BME280;6800;50.940;6.940;2023-02-16T21:42:34;101415.72;;;21.29;40.19
13456;BME280;6800;50.940;6.940;2023-02-16T21:46:41;101408.00;;;21.16;40.74
13456;BME280;6800;50.940;6.940;2023-02-16T21:50:43;101406.00;;;21.09;40.61
13456;BME280;6800;50.940;6.940;2023-02-16T21:54:44;101410.91;;;21.13;40.18
13456;BME280;6800;50.940;6.940;2023-02-16T21:59:07;101413.81;;;21.10;40.24
13456;BME280;6800;50.940;6.940;2023-02-16T22:03:11;101390.22;;;21.17;40.48
13456;BME280;6800;50.940;6.940;2023-02-16T22:07:12;101371.94;;;21.33;39.98
13456;BME280;6800;50.940;6.940;2023-02-16T22:11:14;101379.78;;;21.34;40.13
13456;BME280;6800;50.940;6.940;2023-02-16T22:15:15;101385.78;;;21.74;39.14
13456;BME280;6800;50.940;6.940;2023-02-16T22:19:17;101375.31;;;21.92;38.76
13456;BME280;6800;50.940;6.940;2023-02-16T22:23:19;101377.13;;;21.82;39.11
13456;BME280;6800;50.940;6.940;2023-02-16T22:27:20;101374.19;;;21.95;38.90
13456;BME280;6800;50.940;6.940;2023-02-16T22:31:23;101369.97;;;21.73;39.31
13456;BME280;6800;50.940;6.940;2023-02-16T22:35:25;101369.41;;;21.79;39.41
13456;BME280;6800;50.940;6.940;2023-02-16T22:39:27;101372.22;;;21.97;38.75
13456;BME280;6800;50.940;6.940;2023-02-16T22:43:31;101382.28;;;21.93;39.06
13456;BME280;6800;50.940;6.940;2023-02-16T22:47:33;101382.16;;;21.95;39.21
13456;BME280;6800;50.940;6.940;2023-02-16T22:51:34;101377.53;;;21.87;39.24
13456;BME280;6800;50.940;6.940;2023-02-16T22:55:40;101382.84;;;21.97;39.14
13456;BME280;6800;50.940;6.940;2023-02-16T22:59:41;101380.47;;;21.94;39.46
13456;BME280;6800;50.940;6.940;2023-02-16T23:03:46;101383.13;;;22.03;38.90
13456;BME280;6800;50.940;6.940;2023-02-16T23:07:47;101381.97;;;22.06;39.03
13456;BME280;6800;50.940;6.940;2023-02-16T23:11:49;101377.53;;;21.97;39.33
13456;BME280;6800;50.940;6.940;2023-02-16T23:15:51;101378.19;;;22.08;39.02
13456;BME280;6800;50.940;6.940;2023-02-16T23:19:52;101364.81;;;21.91;39.20
13456;BME280;6800;50.940;6.940;2023-02-16T23:23:54;101373.81;;;22.17;39.07
13456;BME280;6800;50.940;6.940;2023-02-16T23:27:56;101372.88;;;22.08;38.92